Time;durP1;ratioP1;P1;durP2;ratioP2;P2;SDS_P1;SDS_P2;PMS_P1;PMS_P2;Temp;Humidity;BMP_temperature;BMP_pressure;BME280_temperature;BME280_humidity;BME280_pressure;Samples;Min_cycle;Max_cycle;Signal;HPM_P1;HPM_P2
2022/07/02 00:00:36;;;;;;;;;;;24.50;44.50;;;;;;8467422;28;19907;-44
2022/07/02 00:04:40;;;;;;;;;;;24.50;44.50;;;;;;8467153;28;19915;-43
2022/07/02 00:08:42;;;;;;;;;;;24.50;44.50;;;;;;8471466;27;19926;-42
2022/07/02 00:12:43;;;;;;;;;;;24.50;44.50;;;;;;8467184;28;19912;-43
2022/07/02 00:16:46;;;;;;;;;;;24.50;44.50;;;;;;8466615;28;19961;-43
2022/07/02 00:20:47;;;;;;;;;;;24.50;44.50;;;;;;8466656;28;19912;-43
2022/07/02 00:24:47;;;;;;;;;;;24.50;44.50;;;;;;8466669;28;20021;-43
2022/07/02 00:28:51;;;;;;;;;;;24.50;44.50;;;;;;8465920;28;19911;-43
2022/07/02 00:32:51;;;;;;;;;;;24.40;44.50;;;;;;8466316;28;19934;-42
2022/07/02 00:36:52;;;;;;;;;;;24.40;44.50;;;;;;8466144;28;19916;-42
2022/07/02 00:40:52;;;;;;;;;;;24.40;44.50;;;;;;8465818;28;19911;-43
2022/07/02 00:44:53;;;;;;;;;;;24.40;44.50;;;;;;8465784;28;20010;-43
2022/07/02 00:48:54;;;;;;;;;;;24.40;44.50;;;;;;8465963;28;19911;-44
2022/07/02 00:52:54;;;;;;;;;;;24.40;44.50;;;;;;8465092;28;19918;-42
2022/07/02 00:56:55;;;;;;;;;;;24.30;44.50;;;;;;8465462;28;19911;-42
2022/07/02 01:00:55;;;;;;;;;;;24.40;44.50;;;;;;8465548;28;19911;-43
2022/07/02 01:04:56;;;;;;;;;;;24.30;44.50;;;;;;8464736;28;19912;-43
2022/07/02 01:13:19;;;;;;;;;;;24.30;44.50;;;;;;8464001;28;19919;-42
2022/07/02 01:17:20;;;;;;;;;;;24.30;44.50;;;;;;8464332;28;19912;-44
2022/07/02 01:21:21;;;;;;;;;;;24.30;44.50;;;;;;8464674;28;20284;-43
2022/07/02 01:25:22;;;;;;;;;;;24.30;44.50;;;;;;8464409;28;19919;-43
2022/07/02 01:29:22;;;;;;;;;;;24.30;45.10;;;;;;8464868;28;19916;-43
2022/07/02 01:33:23;;;;;;;;;;;24.30;44.60;;;;;;8464661;28;20013;-43
2022/07/02 01:37:23;;;;;;;;;;;24.30;45.10;;;;;;8463947;28;19911;-42
2022/07/02 01:41:39;;;;;;;;;;;24.20;44.50;;;;;;8464439;28;20355;-43
2022/07/02 01:45:40;;;;;;;;;;;24.30;44.60;;;;;;8464226;28;20010;-43
2022/07/02 01:49:40;;;;;;;;;;;24.20;45.00;;;;;;8463555;28;19912;-43
2022/07/02 01:53:41;;;;;;;;;;;24.20;44.50;;;;;;8464227;28;19972;-43
2022/07/02 01:57:41;;;;;;;;;;;24.20;44.50;;;;;;8463817;28;20398;-44
2022/07/02 02:01:43;;;;;;;;;;;24.20;44.50;;;;;;8463320;28;19914;-45
2022/07/02 02:05:43;;;;;;;;;;;24.20;44.50;;;;;;8463882;28;19922;-41
2022/07/02 02:09:43;;;;;;;;;;;24.20;44.50;;;;;;8463626;28;19912;-43
2022/07/02 02:13:44;;;;;;;;;;;24.10;45.00;;;;;;8463070;28;19912;-44
2022/07/02 02:17:44;;;;;;;;;;;24.10;44.50;;;;;;8463288;28;19911;-43
2022/07/02 02:21:45;;;;;;;;;;;24.10;44.50;;;;;;8467033;28;19915;-43
2022/07/02 02:25:45;;;;;;;;;;;24.10;44.50;;;;;;8470123;28;19919;-44
2022/07/02 02:29:46;;;;;;;;;;;24.10;44.50;;;;;;8470126;28;19923;-43
2022/07/02 02:33:46;;;;;;;;;;;24.10;44.50;;;;;;8470174;28;19916;-44
2022/07/02 02:37:47;;;;;;;;;;;24.10;44.50;;;;;;8469464;28;20370;-43
2022/07/02 02:41:47;;;;;;;;;;;24.10;44.50;;;;;;8469826;28;19908;-43
2022/07/02 02:45:48;;;;;;;;;;;24.10;44.50;;;;;;8469796;28;19920;-43
2022/07/02 02:49:49;;;;;;;;;;;24.10;44.50;;;;;;8469131;28;20399;-42
2022/07/02 02:53:49;;;;;;;;;;;24.10;44.50;;;;;;8469794;28;19912;-43
2022/07/02 02:57:50;;;;;;;;;;;24.00;44.50;;;;;;8469508;28;19916;-44
2022/07/02 03:01:50;;;;;;;;;;;24.00;44.40;;;;;;8468809;28;20368;-43
2022/07/02 03:05:51;;;;;;;;;;;24.00;44.50;;;;;;8469169;28;20273;-43
2022/07/02 03:09:51;;;;;;;;;;;24.00;44.40;;;;;;8469059;28;20364;-43
2022/07/02 03:13:52;;;;;;;;;;;24.00;44.40;;;;;;8468379;28;19972;-43
2022/07/02 03:17:52;;;;;;;;;;;24.00;44.50;;;;;;8468658;28;20277;-45
2022/07/02 03:21:52;;;;;;;;;;;24.00;44.50;;;;;;8468845;28;19911;-43
2022/07/02 03:25:53;;;;;;;;;;;24.00;44.50;;;;;;8467673;28;19926;-44
2022/07/02 03:29:53;;;;;;;;;;;24.00;44.50;;;;;;8468525;28;19955;-43
2022/07/02 03:33:54;;;;;;;;;;;23.90;44.50;;;;;;8467279;28;19911;-43
2022/07/02 03:37:54;;;;;;;;;;;23.90;44.40;;;;;;8467500;28;19995;-44
2022/07/02 03:41:55;;;;;;;;;;;23.90;44.50;;;;;;8468131;28;19908;-43
2022/07/02 03:45:55;;;;;;;;;;;23.90;44.50;;;;;;8467925;28;20014;-45
2022/07/02 03:49:55;;;;;;;;;;;23.90;44.50;;;;;;8467199;28;20288;-45
2022/07/02 03:53:56;;;;;;;;;;;23.90;44.50;;;;;;8467567;28;19916;-44
2022/07/02 03:57:56;;;;;;;;;;;23.80;44.40;;;;;;8467414;28;19968;-43
2022/07/02 04:01:57;;;;;;;;;;;23.90;44.50;;;;;;8467031;28;19911;-44
2022/07/02 04:05:57;;;;;;;;;;;23.90;44.50;;;;;;8466441;28;20014;-45
2022/07/02 04:09:58;;;;;;;;;;;23.80;44.50;;;;;;8467101;28;19916;-43
2022/07/02 04:13:58;;;;;;;;;;;23.80;44.50;;;;;;8466538;28;20014;-45
2022/07/02 04:17:58;;;;;;;;;;;23.80;44.50;;;;;;8466774;28;19912;-45
2022/07/02 04:22:01;;;;;;;;;;;23.80;44.50;;;;;;8466754;28;19915;-44
2022/07/02 04:26:01;;;;;;;;;;;23.80;44.50;;;;;;8465818;28;19977;-44
2022/07/02 04:30:02;;;;;;;;;;;23.80;44.50;;;;;;8466300;28;19969;-43
2022/07/02 04:34:02;;;;;;;;;;;23.80;44.50;;;;;;8466393;28;20265;-43
2022/07/02 04:38:04;;;;;;;;;;;23.80;44.50;;;;;;8465682;28;20007;-48
2022/07/02 04:42:05;;;;;;;;;;;23.80;44.50;;;;;;8466217;28;19995;-44
2022/07/02 04:46:05;;;;;;;;;;;23.80;44.50;;;;;;8465852;28;20303;-44
2022/07/02 04:50:06;;;;;;;;;;;23.70;44.50;;;;;;8465303;28;20006;-46
2022/07/02 04:54:06;;;;;;;;;;;23.80;44.50;;;;;;8465530;28;19923;-44
2022/07/02 04:58:07;;;;;;;;;;;23.70;44.50;;;;;;8465427;28;19916;-44
2022/07/02 05:02:07;;;;;;;;;;;23.70;44.50;;;;;;8465113;28;19961;-44
2022/07/02 05:06:08;;;;;;;;;;;23.70;44.50;;;;;;8465378;28;20022;-44
2022/07/02 05:10:08;;;;;;;;;;;23.70;44.50;;;;;;8464968;28;19912;-43
2022/07/02 05:14:09;;;;;;;;;;;23.70;44.50;;;;;;8464629;28;20341;-43
2022/07/02 05:18:09;;;;;;;;;;;23.70;44.50;;;;;;8464786;28;20368;-45
2022/07/02 05:22:10;;;;;;;;;;;23.80;44.50;;;;;;8464885;28;19907;-44
2022/07/02 05:26:10;;;;;;;;;;;23.80;44.40;;;;;;8464266;28;20392;-45
2022/07/02 05:30:11;;;;;;;;;;;23.90;44.20;;;;;;8464735;28;20352;-43
2022/07/02 05:34:11;;;;;;;;;;;24.00;43.90;;;;;;8464429;28;19917;-45
2022/07/02 05:38:12;;;;;;;;;;;24.10;43.60;;;;;;8463724;28;20386;-44
2022/07/02 05:42:12;;;;;;;;;;;24.20;43.50;;;;;;8464360;28;19914;-43
2022/07/02 05:46:13;;;;;;;;;;;24.20;43.60;;;;;;8463799;28;19927;-44
2022/07/02 05:50:13;;;;;;;;;;;24.10;43.60;;;;;;8463475;28;19912;-44
2022/07/02 05:54:14;;;;;;;;;;;24.10;43.70;;;;;;8463985;28;19915;-43
2022/07/02 05:58:14;;;;;;;;;;;24.00;43.80;;;;;;8463325;28;19911;-44
2022/07/02 06:02:15;;;;;;;;;;;24.00;43.80;;;;;;8463786;28;19912;-43
2022/07/02 06:10:34;;;;;;;;;;;23.90;44.00;;;;;;8463240;28;19915;-43
2022/07/02 06:14:34;;;;;;;;;;;23.90;44.10;;;;;;8463740;28;19911;-44
2022/07/02 06:18:35;;;;;;;;;;;23.90;44.10;;;;;;8463692;28;19907;-43
2022/07/02 06:22:35;;;;;;;;;;;23.80;44.20;;;;;;8463177;28;19915;-45
2022/07/02 06:26:36;;;;;;;;;;;23.80;44.20;;;;;;8463522;28;19931;-43
2022/07/02 06:30:37;;;;;;;;;;;23.80;44.30;;;;;;8463436;28;20008;-43
2022/07/02 06:34:37;;;;;;;;;;;23.80;44.30;;;;;;8462806;28;19914;-44
2022/07/02 06:38:38;;;;;;;;;;;23.80;44.30;;;;;;8463509;28;19961;-45
2022/07/02 06:42:38;;;;;;;;;;;23.80;44.40;;;;;;8463329;28;19911;-45
2022/07/02 06:46:38;;;;;;;;;;;23.70;44.40;;;;;;8462416;28;19926;-45
2022/07/02 06:50:39;;;;;;;;;;;23.80;44.40;;;;;;8462950;28;20283;-43
2022/07/02 06:54:39;;;;;;;;;;;23.70;44.40;;;;;;8462815;28;20376;-43
2022/07/02 06:58:40;;;;;;;;;;;23.70;44.40;;;;;;8462339;28;20006;-44
2022/07/02 07:02:40;;;;;;;;;;;23.80;44.50;;;;;;8462727;28;19930;-44
2022/07/02 07:06:43;;;;;;;;;;;23.80;44.50;;;;;;8462473;28;19919;-44
2022/07/02 07:10:44;;;;;;;;;;;23.70;44.50;;;;;;8468944;28;20017;-43
2022/07/02 07:14:45;;;;;;;;;;;23.70;44.50;;;;;;8445271;28;19915;-44
2022/07/02 07:18:52;;;;;;;;;;;23.70;44.50;;;;;;8468573;28;19932;-45
2022/07/02 07:22:53;;;;;;;;;;;23.70;44.50;;;;;;8449670;28;19922;-45
2022/07/02 07:26:53;;;;;;;;;;;23.70;44.50;;;;;;8449135;28;19972;-45
2022/07/02 07:30:54;;;;;;;;;;;23.70;44.50;;;;;;8468461;28;20399;-43
2022/07/02 07:34:55;;;;;;;;;;;23.70;44.50;;;;;;8467265;28;19912;-42
2022/07/02 07:38:56;;;;;;;;;;;23.70;44.50;;;;;;8467649;28;19908;-44
2022/07/02 07:42:56;;;;;;;;;;;23.80;44.60;;;;;;8468010;28;19959;-43
2022/07/02 07:46:57;;;;;;;;;;;23.70;44.50;;;;;;8467150;28;20371;-45
2022/07/02 07:50:57;;;;;;;;;;;23.80;44.60;;;;;;8467555;28;19995;-45
2022/07/02 07:54:58;;;;;;;;;;;23.80;44.50;;;;;;8467387;28;19908;-45
2022/07/02 07:58:58;;;;;;;;;;;23.80;44.50;;;;;;8466832;28;19911;-45
2022/07/02 08:02:59;;;;;;;;;;;23.80;44.50;;;;;;8467339;28;20289;-44
2022/07/02 08:06:59;;;;;;;;;;;23.80;44.50;;;;;;8467094;28;19931;-43
2022/07/02 08:11:00;;;;;;;;;;;23.80;44.50;;;;;;8466523;28;20429;-44
2022/07/02 08:15:00;;;;;;;;;;;23.80;44.50;;;;;;8466848;28;19955;-46
2022/07/02 08:19:01;;;;;;;;;;;23.90;44.50;;;;;;8466664;28;20380;-44
2022/07/02 08:23:01;;;;;;;;;;;23.90;44.50;;;;;;8466659;28;19912;-43
2022/07/02 08:27:02;;;;;;;;;;;23.90;44.50;;;;;;8466502;28;19920;-43
2022/07/02 08:31:02;;;;;;;;;;;23.90;44.50;;;;;;8466443;28;19990;-45
2022/07/02 08:35:04;;;;;;;;;;;23.90;44.40;;;;;;8465747;28;19990;-44
2022/07/02 08:39:05;;;;;;;;;;;23.90;44.40;;;;;;8466682;28;19942;-43
2022/07/02 08:43:05;;;;;;;;;;;24.00;44.50;;;;;;8465768;28;19912;-44
2022/07/02 08:47:07;;;;;;;;;;;24.00;44.50;;;;;;8465247;28;20431;-43
2022/07/02 08:51:10;;;;;;;;;;;24.00;44.50;;;;;;8465788;28;19911;-43
2022/07/02 08:55:10;;;;;;;;;;;24.00;44.50;;;;;;8465592;28;20250;-45
2022/07/02 08:59:11;;;;;;;;;;;24.00;44.40;;;;;;8447176;28;20002;-45
2022/07/02 09:03:13;;;;;;;;;;;24.00;44.50;;;;;;8465515;28;19955;-42
2022/07/02 09:07:15;;;;;;;;;;;24.10;44.50;;;;;;8464793;28;19968;-43
2022/07/02 09:11:15;;;;;;;;;;;24.10;44.50;;;;;;8463940;28;19920;-44
2022/07/02 09:15:15;;;;;;;;;;;24.10;44.40;;;;;;8464688;28;19915;-44
2022/07/02 09:19:17;;;;;;;;;;;24.10;44.40;;;;;;8465103;28;19916;-44
2022/07/02 09:23:21;;;;;;;;;;;24.10;44.40;;;;;;8464092;28;19920;-43
2022/07/02 09:27:21;;;;;;;;;;;24.10;44.40;;;;;;8464582;28;20006;-43
2022/07/02 09:31:22;;;;;;;;;;;24.10;44.40;;;;;;8463323;28;19930;-43
2022/07/02 09:35:22;;;;;;;;;;;24.20;44.50;;;;;;8464225;28;19990;-43
2022/07/02 09:39:29;;;;;;;;;;;24.20;44.40;;;;;;8464794;28;19911;-44
2022/07/02 09:43:31;;;;;;;;;;;24.20;44.30;;;;;;8464076;28;19935;-44
2022/07/02 09:47:33;;;;;;;;;;;24.30;44.40;;;;;;8464455;28;19919;-44
2022/07/02 09:51:45;;;;;;;;;;;24.30;44.40;;;;;;8463833;28;19908;-45
2022/07/02 09:55:50;;;;;;;;;;;24.30;44.40;;;;;;8463314;28;19911;-45
2022/07/02 09:59:50;;;;;;;;;;;24.30;44.30;;;;;;8463929;28;19918;-44
2022/07/02 10:03:53;;;;;;;;;;;24.30;44.30;;;;;;8464102;28;19912;-43
2022/07/02 10:07:54;;;;;;;;;;;24.30;44.30;;;;;;8462989;28;19996;-43
2022/07/02 10:11:56;;;;;;;;;;;24.40;44.30;;;;;;8462553;28;19911;-44
2022/07/02 10:16:00;;;;;;;;;;;24.40;44.30;;;;;;8463418;28;19912;-44
2022/07/02 10:20:02;;;;;;;;;;;24.40;44.30;;;;;;8462886;28;19965;-45
2022/07/02 10:24:03;;;;;;;;;;;24.50;44.30;;;;;;8463907;28;19944;-44
2022/07/02 10:28:03;;;;;;;;;;;24.50;44.20;;;;;;8463523;28;19926;-44
2022/07/02 10:32:04;;;;;;;;;;;24.50;44.30;;;;;;8462851;28;19916;-43
2022/07/02 10:36:07;;;;;;;;;;;24.50;44.20;;;;;;8463176;28;19908;-43
2022/07/02 10:40:08;;;;;;;;;;;24.50;44.20;;;;;;8463292;28;19911;-43
2022/07/02 10:44:09;;;;;;;;;;;24.60;44.20;;;;;;8468850;28;19911;-44
2022/07/02 10:48:11;;;;;;;;;;;24.60;44.20;;;;;;8469707;28;20014;-44
2022/07/02 10:52:11;;;;;;;;;;;24.60;44.10;;;;;;8469787;28;19908;-43
2022/07/02 10:56:11;;;;;;;;;;;24.60;44.10;;;;;;8469072;28;19911;-43
2022/07/02 11:00:15;;;;;;;;;;;24.60;44.10;;;;;;8469572;28;19908;-44
2022/07/02 11:04:21;;;;;;;;;;;24.60;44.00;;;;;;8469611;28;20394;-44
2022/07/02 11:08:48;;;;;;;;;;;24.70;44.10;;;;;;8469062;28;20292;-44
2022/07/02 11:12:52;;;;;;;;;;;24.70;44.00;;;;;;8457407;28;19988;-43
2022/07/02 11:16:54;;;;;;;;;;;24.70;44.00;;;;;;8468381;28;19911;-43
2022/07/02 11:20:54;;;;;;;;;;;24.80;44.00;;;;;;8468970;28;19957;-42
2022/07/02 11:24:55;;;;;;;;;;;24.80;44.00;;;;;;8468944;28;19961;-43
2022/07/02 11:29:00;;;;;;;;;;;24.80;44.00;;;;;;8468142;28;19999;-44
2022/07/02 11:33:11;;;;;;;;;;;24.90;44.00;;;;;;8469788;28;19915;-44
2022/07/02 11:37:21;;;;;;;;;;;24.90;44.00;;;;;;8468323;28;19951;-44
2022/07/02 11:41:32;;;;;;;;;;;24.90;43.90;;;;;;8468135;28;19923;-42
2022/07/02 11:45:40;;;;;;;;;;;24.90;43.90;;;;;;8467933;28;19943;-44
2022/07/02 11:49:41;;;;;;;;;;;24.90;43.90;;;;;;8467643;28;19911;-44
2022/07/02 11:53:42;;;;;;;;;;;25.00;44.00;;;;;;8467086;28;19911;-43
2022/07/02 11:57:43;;;;;;;;;;;25.00;43.90;;;;;;8467982;28;20398;-42
2022/07/02 12:01:44;;;;;;;;;;;25.00;43.90;;;;;;8467045;28;19912;-42
2022/07/02 12:05:51;;;;;;;;;;;25.00;43.80;;;;;;8467267;28;20461;-43
2022/07/02 12:09:53;;;;;;;;;;;25.00;43.80;;;;;;8467442;28;19916;-43
2022/07/02 12:13:54;;;;;;;;;;;25.00;43.70;;;;;;8466782;28;20360;-43
2022/07/02 12:17:55;;;;;;;;;;;25.10;43.80;;;;;;8466856;28;19936;-43
2022/07/02 12:21:55;;;;;;;;;;;25.10;43.80;;;;;;8466883;28;19958;-43
2022/07/02 12:25:56;;;;;;;;;;;25.10;43.80;;;;;;8465994;28;21541;-42
2022/07/02 12:29:56;;;;;;;;;;;25.10;43.70;;;;;;8466874;28;19907;-42
2022/07/02 12:33:57;;;;;;;;;;;25.20;43.70;;;;;;8466588;28;19916;-43
2022/07/02 12:37:57;;;;;;;;;;;25.20;43.70;;;;;;8465983;28;20003;-42
2022/07/02 12:41:57;;;;;;;;;;;25.20;43.70;;;;;;8466238;28;19970;-44
2022/07/02 12:46:05;;;;;;;;;;;25.20;43.60;;;;;;8465893;28;19920;-42
2022/07/02 12:50:05;;;;;;;;;;;25.20;43.60;;;;;;8465733;28;20326;-42
2022/07/02 12:54:06;;;;;;;;;;;25.20;43.60;;;;;;8465619;28;19911;-43
2022/07/02 12:58:07;;;;;;;;;;;25.30;43.60;;;;;;8465643;28;19939;-45
2022/07/02 13:02:12;;;;;;;;;;;25.20;43.60;;;;;;8465008;28;20382;-43
2022/07/02 13:06:13;;;;;;;;;;;25.30;43.60;;;;;;8463222;28;20291;-43
2022/07/02 13:10:13;;;;;;;;;;;25.30;43.60;;;;;;8465615;28;19908;-43
2022/07/02 13:14:13;;;;;;;;;;;25.30;43.50;;;;;;8464740;28;19916;-42
2022/07/02 13:18:14;;;;;;;;;;;25.30;43.50;;;;;;8465013;28;19912;-44
2022/07/02 13:22:14;;;;;;;;;;;25.40;43.60;;;;;;8464887;28;19912;-44
2022/07/02 13:26:15;;;;;;;;;;;25.40;43.60;;;;;;8464017;28;20002;-44
2022/07/02 13:30:16;;;;;;;;;;;25.40;43.60;;;;;;8465007;28;19912;-44
2022/07/02 13:34:17;;;;;;;;;;;25.40;43.60;;;;;;8464768;28;20061;-44
2022/07/02 13:38:17;;;;;;;;;;;25.40;43.50;;;;;;8463926;28;20379;-45
2022/07/02 13:42:18;;;;;;;;;;;25.40;43.50;;;;;;8464303;28;19908;-42
2022/07/02 13:46:18;;;;;;;;;;;25.40;43.50;;;;;;8464205;28;19919;-44
2022/07/02 13:50:19;;;;;;;;;;;25.50;43.50;;;;;;8463965;28;19973;-43
2022/07/02 13:54:20;;;;;;;;;;;25.50;43.50;;;;;;8464138;28;19911;-43
2022/07/02 13:58:20;;;;;;;;;;;25.50;43.50;;;;;;8463317;28;19991;-42
2022/07/02 14:02:21;;;;;;;;;;;25.50;43.50;;;;;;8463753;28;20003;-43
2022/07/02 14:06:21;;;;;;;;;;;25.50;43.50;;;;;;8463947;28;19965;-44
2022/07/02 14:10:22;;;;;;;;;;;25.50;43.50;;;;;;8463540;28;19957;-43
2022/07/02 14:14:24;;;;;;;;;;;25.60;43.50;;;;;;8463712;28;19918;-43
2022/07/02 14:18:24;;;;;;;;;;;25.60;43.60;;;;;;8463120;28;19911;-43
2022/07/02 14:22:29;;;;;;;;;;;25.60;43.50;;;;;;8463162;28;20280;-44
2022/07/02 14:26:29;;;;;;;;;;;25.60;43.50;;;;;;8463583;28;19920;-43
2022/07/02 14:30:30;;;;;;;;;;;25.60;43.50;;;;;;8463605;28;19912;-43
2022/07/02 14:34:30;;;;;;;;;;;25.60;43.50;;;;;;8462899;28;20318;-43
2022/07/02 14:38:31;;;;;;;;;;;25.60;43.50;;;;;;8463170;28;20288;-43
2022/07/02 14:42:31;;;;;;;;;;;25.60;43.50;;;;;;8463391;28;19999;-43
2022/07/02 14:46:32;;;;;;;;;;;25.60;43.50;;;;;;8462699;28;19973;-43
2022/07/02 14:50:32;;;;;;;;;;;25.60;43.50;;;;;;8463577;28;19955;-43
2022/07/02 14:54:33;;;;;;;;;;;25.60;43.50;;;;;;8462951;28;19916;-44
2022/07/02 14:58:33;;;;;;;;;;;25.60;43.40;;;;;;8462516;28;20447;-44
2022/07/02 15:02:34;;;;;;;;;;;25.70;43.50;;;;;;8462856;28;19907;-43
2022/07/02 15:06:34;;;;;;;;;;;25.70;43.50;;;;;;8463211;28;20003;-43
2022/07/02 15:10:35;;;;;;;;;;;25.70;43.50;;;;;;8462233;28;19912;-43
2022/07/02 15:18:54;;;;;;;;;;;25.70;43.50;;;;;;8466719;28;20389;-44
2022/07/02 15:22:54;;;;;;;;;;;25.70;43.50;;;;;;8462066;28;19912;-43
2022/07/02 15:27:03;;;;;;;;;;;25.70;43.40;;;;;;8462680;28;20004;-44
2022/07/02 15:31:04;;;;;;;;;;;25.70;43.40;;;;;;8467934;28;19986;-43
2022/07/02 15:35:04;;;;;;;;;;;25.70;43.40;;;;;;8467909;28;19935;-44
2022/07/02 15:39:05;;;;;;;;;;;25.70;43.40;;;;;;8468515;28;19912;-43
2022/07/02 15:43:06;;;;;;;;;;;25.70;43.40;;;;;;8468107;28;19908;-44
2022/07/02 15:47:07;;;;;;;;;;;25.80;43.50;;;;;;8467774;28;20376;-44
2022/07/02 15:51:13;;;;;;;;;;;25.70;43.40;;;;;;8468181;28;19930;-43
2022/07/02 15:55:25;;;;;;;;;;;25.70;43.40;;;;;;8467936;28;19919;-43
2022/07/02 15:59:26;;;;;;;;;;;25.80;43.40;;;;;;8467523;28;20379;-43
2022/07/02 16:03:30;;;;;;;;;;;25.80;43.40;;;;;;8467835;28;19919;-43
2022/07/02 16:07:33;;;;;;;;;;;25.80;43.50;;;;;;8466033;28;19920;-44
2022/07/02 16:11:33;;;;;;;;;;;25.80;43.40;;;;;;8467423;28;19951;-43
2022/07/02 16:15:34;;;;;;;;;;;25.80;43.40;;;;;;8467448;28;19911;-43
2022/07/02 16:19:37;;;;;;;;;;;25.80;43.40;;;;;;8466706;28;19915;-43
2022/07/02 16:23:38;;;;;;;;;;;25.80;43.40;;;;;;8466954;28;19919;-43
2022/07/02 16:27:40;;;;;;;;;;;25.80;43.40;;;;;;8466918;28;20002;-43
2022/07/02 16:31:46;;;;;;;;;;;25.80;43.50;;;;;;8466392;28;19939;-45
2022/07/02 16:35:52;;;;;;;;;;;25.80;43.50;;;;;;8466578;28;19998;-44
2022/07/02 16:40:00;;;;;;;;;;;25.80;43.50;;;;;;8466322;28;19915;-43
2022/07/02 16:44:03;;;;;;;;;;;25.80;43.40;;;;;;8465822;28;19965;-43
2022/07/02 16:48:04;;;;;;;;;;;25.80;43.40;;;;;;8465847;28;19920;-44
2022/07/02 16:52:06;;;;;;;;;;;25.80;43.50;;;;;;8466349;28;20280;-43
2022/07/02 16:56:11;;;;;;;;;;;25.80;43.40;;;;;;8465306;28;19911;-44
2022/07/02 17:00:11;;;;;;;;;;;25.80;43.50;;;;;;8465949;28;19912;-43
2022/07/02 17:04:12;;;;;;;;;;;25.80;43.50;;;;;;8447363;28;19970;-44
2022/07/02 17:08:12;;;;;;;;;;;25.80;43.50;;;;;;8464900;28;19927;-43
2022/07/02 17:12:13;;;;;;;;;;;25.80;43.50;;;;;;8465857;28;19991;-43
2022/07/02 17:16:13;;;;;;;;;;;25.80;43.50;;;;;;8465155;28;19995;-43
2022/07/02 17:20:14;;;;;;;;;;;25.80;43.50;;;;;;8464568;28;19912;-42
2022/07/02 17:24:14;;;;;;;;;;;25.80;43.50;;;;;;8464826;28;19916;-44
2022/07/02 17:28:15;;;;;;;;;;;25.80;43.50;;;;;;8458471;28;19930;-42
2022/07/02 17:32:15;;;;;;;;;;;25.80;43.50;;;;;;8463313;28;19908;-44
2022/07/02 17:36:16;;;;;;;;;;;25.80;43.50;;;;;;8464219;28;20326;-45
2022/07/02 17:40:16;;;;;;;;;;;25.80;43.50;;;;;;8463784;28;20107;-44
2022/07/02 17:44:17;;;;;;;;;;;25.80;43.50;;;;;;8463803;28;20006;-44
2022/07/02 17:48:17;;;;;;;;;;;25.80;43.50;;;;;;8464058;28;19927;-44
2022/07/02 17:52:18;;;;;;;;;;;25.80;43.60;;;;;;8463642;28;20279;-44
2022/07/02 17:56:18;;;;;;;;;;;25.70;43.50;;;;;;8463585;28;19980;-43
2022/07/02 18:00:19;;;;;;;;;;;25.80;43.50;;;;;;8463862;28;19911;-44
2022/07/02 18:04:19;;;;;;;;;;;25.70;43.40;;;;;;8463821;28;20367;-44
2022/07/02 18:08:20;;;;;;;;;;;25.80;43.50;;;;;;8463589;28;20375;-44
2022/07/02 18:12:20;;;;;;;;;;;25.70;43.50;;;;;;8463911;28;19915;-44
2022/07/02 18:16:21;;;;;;;;;;;25.70;43.50;;;;;;8463117;28;19912;-43
2022/07/02 18:20:21;;;;;;;;;;;25.70;43.50;;;;;;8463571;28;19937;-44
2022/07/02 18:24:22;;;;;;;;;;;25.70;43.50;;;;;;8463366;28;20261;-42
2022/07/02 18:28:22;;;;;;;;;;;25.70;43.60;;;;;;8462876;28;19943;-44
2022/07/02 18:32:24;;;;;;;;;;;25.70;43.60;;;;;;8463549;28;20357;-44
2022/07/02 18:36:25;;;;;;;;;;;25.70;43.60;;;;;;8463478;28;19911;-44
2022/07/02 18:40:26;;;;;;;;;;;25.70;43.60;;;;;;8462704;28;19916;-44
2022/07/02 18:44:26;;;;;;;;;;;25.70;43.60;;;;;;8463406;28;20404;-44
2022/07/02 18:48:26;;;;;;;;;;;25.60;43.50;;;;;;8463054;28;19916;-44
2022/07/02 18:52:27;;;;;;;;;;;25.70;43.60;;;;;;8462767;28;20002;-43
2022/07/02 18:56:28;;;;;;;;;;;25.60;43.60;;;;;;8463063;28;20006;-43
2022/07/02 19:00:29;;;;;;;;;;;25.60;43.60;;;;;;8462970;28;19918;-43
2022/07/02 19:04:29;;;;;;;;;;;25.60;43.60;;;;;;8467233;28;19966;-44
2022/07/02 19:08:30;;;;;;;;;;;25.60;43.70;;;;;;8467578;28;19920;-44
2022/07/02 19:12:30;;;;;;;;;;;25.60;43.70;;;;;;8469377;28;19960;-45
2022/07/02 19:16:31;;;;;;;;;;;25.60;43.60;;;;;;8468737;28;20006;-45
2022/07/02 19:20:32;;;;;;;;;;;25.60;43.70;;;;;;8468957;28;19912;-43
2022/07/02 19:24:32;;;;;;;;;;;25.60;44.20;;;;;;8468806;28;19911;-44
2022/07/02 19:32:52;;;;;;;;;;;25.60;43.70;;;;;;8469225;28;19915;-43
2022/07/02 19:36:53;;;;;;;;;;;25.60;43.80;;;;;;8468404;28;19912;-43
2022/07/02 19:40:53;;;;;;;;;;;25.60;43.70;;;;;;8468014;28;20405;-43
2022/07/02 19:44:53;;;;;;;;;;;25.50;43.70;;;;;;8468499;28;19912;-44
2022/07/02 19:48:56;;;;;;;;;;;25.50;43.70;;;;;;8467972;28;19963;-44
2022/07/02 19:52:56;;;;;;;;;;;25.60;43.80;;;;;;8467677;28;19907;-43
2022/07/02 19:56:57;;;;;;;;;;;25.50;43.70;;;;;;8449624;28;19911;-43
2022/07/02 20:00:58;;;;;;;;;;;25.50;43.70;;;;;;8467856;28;19916;-42
2022/07/02 20:04:59;;;;;;;;;;;25.50;43.80;;;;;;8467141;28;19957;-42
2022/07/02 20:09:01;;;;;;;;;;;25.50;43.80;;;;;;8467297;28;20357;-42
2022/07/02 20:13:02;;;;;;;;;;;25.50;43.80;;;;;;8467565;28;19994;-43
2022/07/02 20:17:02;;;;;;;;;;;25.50;43.80;;;;;;8465969;28;19912;-43
2022/07/02 20:21:03;;;;;;;;;;;25.50;43.80;;;;;;8467132;28;19915;-42
2022/07/02 20:25:03;;;;;;;;;;;25.50;43.80;;;;;;8466844;28;19922;-43
2022/07/02 20:29:04;;;;;;;;;;;25.50;43.80;;;;;;8466326;28;19916;-43
2022/07/02 20:33:05;;;;;;;;;;;25.50;43.80;;;;;;8466973;28;20503;-43
2022/07/02 20:37:05;;;;;;;;;;;25.40;43.70;;;;;;8466548;28;20010;-42
2022/07/02 20:41:07;;;;;;;;;;;25.40;43.70;;;;;;8465732;28;19918;-43
2022/07/02 20:45:07;;;;;;;;;;;25.40;43.70;;;;;;8466383;28;19912;-43
2022/07/02 20:49:09;;;;;;;;;;;25.40;43.80;;;;;;8465945;28;20394;-43
2022/07/02 20:53:09;;;;;;;;;;;25.40;43.80;;;;;;8465552;28;19907;-43
2022/07/02 20:57:10;;;;;;;;;;;25.40;43.70;;;;;;8465813;28;20287;-42
2022/07/02 21:01:10;;;;;;;;;;;25.40;43.70;;;;;;8465739;28;19919;-43
2022/07/02 21:05:11;;;;;;;;;;;25.40;43.70;;;;;;8465453;28;19957;-44
2022/07/02 21:09:12;;;;;;;;;;;25.40;43.80;;;;;;8465609;28;19916;-43
2022/07/02 21:13:13;;;;;;;;;;;25.40;43.80;;;;;;8465675;28;19914;-43
2022/07/02 21:17:14;;;;;;;;;;;25.40;43.80;;;;;;8464748;28;19912;-43
2022/07/02 21:21:14;;;;;;;;;;;25.40;43.80;;;;;;8465078;28;19979;-43
2022/07/02 21:25:15;;;;;;;;;;;25.40;43.80;;;;;;8464389;28;19916;-42
2022/07/02 21:29:15;;;;;;;;;;;25.40;43.80;;;;;;8463927;28;19998;-43
2022/07/02 21:33:16;;;;;;;;;;;25.40;43.80;;;;;;8465105;28;19915;-42
2022/07/02 21:37:16;;;;;;;;;;;25.30;43.70;;;;;;8464656;28;19911;-44
2022/07/02 21:41:17;;;;;;;;;;;25.30;43.80;;;;;;8464005;28;19923;-43
2022/07/02 21:45:17;;;;;;;;;;;25.30;43.80;;;;;;8464299;28;19927;-43
2022/07/02 21:49:18;;;;;;;;;;;25.40;43.80;;;;;;8464536;28;19920;-43
2022/07/02 21:53:18;;;;;;;;;;;25.40;43.80;;;;;;8463914;28;19912;-43
2022/07/02 21:57:19;;;;;;;;;;;25.30;43.80;;;;;;8464333;28;19911;-43
2022/07/02 22:01:19;;;;;;;;;;;25.30;43.80;;;;;;8468036;27;19912;-43
2022/07/02 22:05:20;;;;;;;;;;;25.30;43.80;;;;;;8474316;27;19912;-43
2022/07/02 22:09:20;;;;;;;;;;;25.30;43.80;;;;;;8463958;28;19962;-43
2022/07/02 22:13:21;;;;;;;;;;;25.30;43.80;;;;;;8463294;28;19912;-42
2022/07/02 22:17:21;;;;;;;;;;;25.30;43.80;;;;;;8463650;28;19971;-43
2022/07/02 22:21:21;;;;;;;;;;;25.30;43.80;;;;;;8463568;28;19912;-43
2022/07/02 22:25:24;;;;;;;;;;;25.30;43.80;;;;;;8463139;28;19923;-45
2022/07/02 22:29:25;;;;;;;;;;;25.20;43.70;;;;;;8463732;28;19916;-44
2022/07/02 22:33:25;;;;;;;;;;;25.30;43.80;;;;;;8463312;28;20292;-44
2022/07/02 22:37:26;;;;;;;;;;;25.20;43.70;;;;;;8464258;28;20489;-43
2022/07/02 22:41:26;;;;;;;;;;;25.20;43.70;;;;;;8470298;28;20264;-44
2022/07/02 22:45:27;;;;;;;;;;;25.20;43.80;;;;;;8470413;28;19972;-44
2022/07/02 22:49:27;;;;;;;;;;;25.20;43.80;;;;;;8469691;28;19920;-43
2022/07/02 22:53:28;;;;;;;;;;;25.20;43.80;;;;;;8469794;28;19951;-43
2022/07/02 22:57:28;;;;;;;;;;;25.20;43.80;;;;;;8469771;28;19912;-43
2022/07/02 23:01:29;;;;;;;;;;;25.20;43.80;;;;;;8469129;28;20416;-44
2022/07/02 23:05:30;;;;;;;;;;;25.20;43.80;;;;;;8469856;28;19982;-43
2022/07/02 23:09:30;;;;;;;;;;;25.20;43.80;;;;;;8469554;28;19943;-43
2022/07/02 23:13:30;;;;;;;;;;;25.20;43.80;;;;;;8468435;28;19919;-44
2022/07/02 23:17:32;;;;;;;;;;;25.20;43.80;;;;;;8468837;28;19911;-44
2022/07/02 23:21:32;;;;;;;;;;;25.10;43.70;;;;;;8469070;28;19919;-45
2022/07/02 23:25:33;;;;;;;;;;;25.10;43.80;;;;;;8468343;28;19915;-44
2022/07/02 23:29:33;;;;;;;;;;;25.10;43.70;;;;;;8469082;28;19916;-45
2022/07/02 23:33:34;;;;;;;;;;;25.10;43.70;;;;;;8468877;28;19911;-43
2022/07/02 23:37:34;;;;;;;;;;;25.10;43.80;;;;;;8468153;28;19954;-44